Time;durP1;ratioP1;P1;durP2;ratioP2;P2;SDS_P1;SDS_P2;PMS_P1;PMS_P2;Temp;Humidity;BMP_temperature;BMP_pressure;BME280_temperature;BME280_humidity;BME280_pressure;Samples;Min_cycle;Max_cycle;Signal;HPM_P1;HPM_P2
2022/05/29 00:01:35;;;;;;;12.30;6.10;;;;;;;19.92;87.35;98980.59;4992337;28;20190;-62
2022/05/29 00:04:02;;;;;;;10.00;6.00;;;;;;;19.96;86.52;98970.06;4991885;28;20205;-62
2022/05/29 00:06:29;;;;;;;10.97;6.10;;;;;;;19.98;86.23;98954.34;4991933;28;20194;-62
2022/05/29 00:08:55;;;;;;;12.10;5.67;;;;;;;19.96;86.11;98957.03;4991886;28;20197;-61
2022/05/29 00:11:22;;;;;;;9.33;5.57;;;;;;;19.97;86.48;98958.72;4991673;28;20201;-62
2022/05/29 00:13:49;;;;;;;13.83;6.13;;;;;;;19.96;86.57;98957.03;4991959;28;20194;-62
2022/05/29 00:16:17;;;;;;;10.33;6.50;;;;;;;19.95;85.61;98949.22;4991612;28;20198;-62
2022/05/29 00:18:44;;;;;;;13.80;6.20;;;;;;;19.93;84.80;98931.03;4991592;28;20217;-62
2022/05/29 00:21:11;;;;;;;8.40;5.67;;;;;;;19.92;83.60;98904.97;4991550;28;20278;-61
2022/05/29 00:23:42;;;;;;;11.67;6.60;;;;;;;19.94;83.30;98908.44;4991649;28;20657;-61
2022/05/29 00:26:09;;;;;;;11.37;5.87;;;;;;;19.98;83.97;98913.50;4992041;28;20198;-62
2022/05/29 00:28:37;;;;;;;13.77;6.95;;;;;;;20.00;84.10;98909.06;4991080;28;20432;-62
2022/05/29 00:31:04;;;;;;;15.03;6.27;;;;;;;19.99;83.96;98904.78;4991592;28;21069;-62
2022/05/29 00:33:32;;;;;;;12.40;6.00;;;;;;;19.97;83.99;98906.56;4991912;28;20201;-62
2022/05/29 00:35:59;;;;;;;11.63;5.70;;;;;;;19.93;83.90;98902.34;4992087;28;20186;-62
2022/05/29 00:38:28;;;;;;;11.43;5.90;;;;;;;19.88;84.18;98896.44;4991452;28;20198;-62
2022/05/29 00:41:04;;;;;;;10.83;5.67;;;;;;;19.87;84.79;98901.66;4991469;28;20190;-62
2022/05/29 00:43:30;;;;;;;13.90;6.30;;;;;;;19.86;84.21;98897.38;4990646;28;20492;-62
2022/05/29 00:46:00;;;;;;;9.97;5.80;;;;;;;19.86;82.98;98899.97;4991314;28;20190;-62
2022/05/29 00:48:27;;;;;;;14.60;5.83;;;;;;;19.86;82.43;98898.19;4991431;28;20665;-61
2022/05/29 00:50:58;;;;;;;12.57;6.30;;;;;;;19.86;81.80;98902.59;4991646;28;20198;-62
2022/05/29 00:53:27;;;;;;;10.40;5.87;;;;;;;19.89;80.44;98887.69;4991130;28;20198;-61
2022/05/29 00:55:58;;;;;;;12.07;5.40;;;;;;;19.95;79.05;98865.78;4991275;28;20205;-62
2022/05/29 00:58:26;;;;;;;19.20;6.50;;;;;;;19.93;79.40;98858.03;4993921;28;20190;-62
2022/05/29 01:00:55;;;;;;;14.43;5.63;;;;;;;19.93;79.56;98844.13;4995551;28;20205;-61
2022/05/29 01:03:22;;;;;;;8.73;5.10;;;;;;;20.00;79.92;98850.84;4995441;28;20198;-61
2022/05/29 01:05:49;;;;;;;12.20;5.90;;;;;;;19.97;79.59;98843.09;4994554;28;20454;-62
2022/05/29 01:08:20;;;;;;;10.83;5.70;;;;;;;20.00;80.04;98850.84;4995581;28;20198;-61
2022/05/29 01:11:01;;;;;;;10.27;5.77;;;;;;;20.00;80.69;98854.31;4995436;28;20200;-61
2022/05/29 01:13:39;;;;;;;13.47;5.33;;;;;;;19.93;80.94;98851.94;4995164;28;20656;-61
2022/05/29 01:16:14;;;;;;;11.10;5.53;;;;;;;19.92;81.30;98853.69;4995332;28;20190;-63
2022/05/29 01:18:51;;;;;;;15.50;5.57;;;;;;;19.82;80.57;98867.06;4995569;28;20186;-63
2022/05/29 01:21:44;;;;;;;11.50;5.27;;;;;;;19.74;81.56;98862.09;4994995;28;20238;-61
2022/05/29 01:24:47;;;;;;;8.70;5.57;;;;;;;19.67;82.11;98876.19;4994165;28;20257;-61
2022/05/29 01:27:41;;;;;;;11.60;5.40;;;;;;;19.78;80.06;98894.97;4974770;28;20202;-61
2022/05/29 01:30:15;;;;;;;6.30;4.97;;;;;;;19.81;79.46;98910.53;4994777;28;20197;-61
2022/05/29 01:32:51;;;;;;;10.20;5.33;;;;;;;19.83;80.05;98933.97;4994820;28;20570;-62
2022/05/29 01:35:24;;;;;;;13.47;5.83;;;;;;;19.84;80.90;98936.50;4994703;28;20194;-61
2022/05/29 01:37:57;;;;;;;9.10;5.77;;;;;;;19.83;81.47;98940.00;4994516;28;20198;-61
2022/05/29 01:40:36;;;;;;;13.90;6.00;;;;;;;19.83;81.64;98947.00;4994610;28;20218;-62
2022/05/29 01:43:11;;;;;;;13.55;6.18;;;;;;;19.82;80.99;98937.47;4993913;28;20444;-61
2022/05/29 01:45:54;;;;;;;12.33;5.47;;;;;;;19.82;80.24;98940.06;4994647;28;20194;-61
2022/05/29 01:48:33;;;;;;;10.37;5.20;;;;;;;19.77;79.83;98931.53;4994370;28;20657;-61
2022/05/29 01:51:07;;;;;;;9.53;5.17;;;;;;;19.83;79.70;98947.00;4994891;28;20225;-62
2022/05/29 01:53:39;;;;;;;16.40;5.97;;;;;;;19.79;79.81;98947.97;4994623;28;20204;-63
2022/05/29 01:56:14;;;;;;;12.40;6.22;;;;;;;19.75;80.30;98977.66;4994588;28;20093;-62
2022/05/29 01:58:45;;;;;;;13.90;6.17;;;;;;;19.60;81.34;98962.44;4994365;28;20679;-62
2022/05/29 02:01:16;;;;;;;14.60;5.90;;;;;;;19.54;81.76;98936.56;4994641;28;20182;-62
2022/05/29 02:03:46;;;;;;;9.83;5.80;;;;;;;19.55;82.53;98901.78;4994711;28;20562;-61
2022/05/29 02:06:18;;;;;;;13.87;6.67;;;;;;;19.39;83.71;98867.53;4994501;28;20193;-62
2022/05/29 02:08:48;;;;;;;12.07;6.13;;;;;;;19.08;85.70;98853.63;4993383;28;20190;-61
2022/05/29 02:11:21;;;;;;;10.70;6.00;;;;;;;19.04;87.48;98855.44;4993973;28;20193;-61
2022/05/29 02:13:51;;;;;;;12.30;5.87;;;;;;;19.14;87.89;98896.00;4994197;28;20191;-62
2022/05/29 02:16:26;;;;;;;10.63;6.00;;;;;;;19.08;87.99;98930.00;4994169;28;20194;-61
2022/05/29 02:18:59;;;;;;;15.80;6.20;;;;;;;19.21;87.69;98975.66;4994013;28;20186;-61
2022/05/29 02:21:32;;;;;;;11.47;5.97;;;;;;;19.24;87.57;99001.63;4994012;28;20257;-61
2022/05/29 02:24:04;;;;;;;12.90;5.30;;;;;;;19.21;88.03;99012.13;4993949;28;20197;-61
2022/05/29 02:26:34;;;;;;;8.07;5.07;;;;;;;19.17;88.51;98994.84;4994330;28;20569;-61
2022/05/29 02:29:07;;;;;;;12.23;6.13;;;;;;;19.18;89.18;98974.88;4994059;28;20953;-63
2022/05/29 02:31:42;;;;;;;13.17;6.07;;;;;;;19.15;89.42;98954.97;4993914;28;20201;-62
2022/05/29 02:34:18;;;;;;;12.77;6.68;;;;;;;19.20;90.17;98939.25;4993189;28;20451;-62
2022/05/29 02:36:51;;;;;;;15.53;6.73;;;;;;;19.26;89.33;98926.88;4993722;28;20198;-61
2022/05/29 02:39:32;;;;;;;10.33;6.03;;;;;;;19.34;88.61;98924.06;4993597;28;20229;-61
2022/05/29 02:42:14;;;;;;;12.57;6.17;;;;;;;19.40;88.64;98943.03;4993886;28;20194;-63
2022/05/29 02:44:47;;;;;;;10.80;6.37;;;;;;;19.41;90.35;98952.56;4993475;28;20194;-61
2022/05/29 02:47:43;;;;;;;9.60;6.17;;;;;;;19.42;91.05;98962.06;4993459;28;20194;-61
2022/05/29 02:50:22;;;;;;;12.33;6.00;;;;;;;19.40;91.70;98957.78;4991581;28;20205;-62
2022/05/29 02:52:52;;;;;;;8.57;6.10;;;;;;;19.35;92.03;98962.25;4993325;28;20202;-62
2022/05/29 02:55:19;;;;;;;13.70;7.17;;;;;;;19.39;92.50;98977.78;4993075;28;20278;-61
2022/05/29 02:57:46;;;;;;;11.15;6.80;;;;;;;19.41;92.71;98991.63;4992453;28;20440;-61
2022/05/29 03:00:15;;;;;;;12.20;6.73;;;;;;;19.46;92.38;99006.28;4993165;28;20225;-61
2022/05/29 03:02:58;;;;;;;13.67;6.43;;;;;;;19.44;92.06;99008.94;4993251;28;20597;-61
2022/05/29 03:05:29;;;;;;;12.37;6.67;;;;;;;19.40;91.40;99008.16;4993137;28;20261;-61
2022/05/29 03:08:22;;;;;;;11.60;6.17;;;;;;;19.40;91.70;99018.56;4992854;28;20199;-61
2022/05/29 03:11:00;;;;;;;13.03;6.20;;;;;;;19.39;91.41;99013.41;4992120;28;20584;-61
2022/05/29 03:13:36;;;;;;;11.77;6.97;;;;;;;19.41;92.07;99009.88;4992856;28;20301;-61
2022/05/29 03:16:12;;;;;;;9.00;5.73;;;;;;;19.39;92.20;98992.56;4992813;28;20197;-61
2022/05/29 03:18:53;;;;;;;13.13;6.50;;;;;;;19.35;92.08;98977.88;4992798;28;20534;-61
2022/05/29 03:21:31;;;;;;;15.30;6.97;;;;;;;19.35;91.87;98965.72;4992517;28;20225;-63
2022/05/29 03:24:07;;;;;;;10.13;6.63;;;;;;;19.36;91.63;98971.78;4992727;28;20198;-61
2022/05/29 03:26:40;;;;;;;13.23;6.73;;;;;;;19.32;91.27;98959.72;4992646;28;20197;-63
2022/05/29 03:29:10;;;;;;;14.03;6.67;;;;;;;19.27;91.94;98964.22;4992637;28;20209;-61
2022/05/29 03:31:40;;;;;;;10.50;6.27;;;;;;;19.33;93.14;98966.66;4992538;28;20569;-61
2022/05/29 03:34:10;;;;;;;16.48;6.95;;;;;;;19.33;93.52;98944.06;4992661;28;20436;-61
2022/05/29 03:36:37;;;;;;;10.70;6.77;;;;;;;19.32;93.92;98905.00;4992435;28;20317;-61
2022/05/29 03:39:04;;;;;;;14.43;7.20;;;;;;;19.32;94.36;98903.28;4992142;28;20202;-63
2022/05/29 03:41:39;;;;;;;10.00;6.80;;;;;;;19.35;94.36;98921.44;4991907;28;20276;-62
2022/05/29 03:44:06;;;;;;;10.30;6.77;;;;;;;19.37;94.78;98923.97;4992174;28;20193;-62
2022/05/29 03:46:33;;;;;;;18.13;7.60;;;;;;;19.42;94.91;98922.13;4992476;28;20179;-61
2022/05/29 03:49:00;;;;;;;14.48;8.60;;;;;;;19.42;95.36;98899.53;4991845;28;20444;-62
2022/05/29 03:51:28;;;;;;;17.13;7.07;;;;;;;19.36;95.06;98860.63;4991972;28;20186;-62
2022/05/29 03:53:55;;;;;;;10.87;6.77;;;;;;;19.34;93.73;98867.59;4991892;28;20206;-62
2022/05/29 03:56:21;;;;;;;16.20;6.60;;;;;;;19.34;92.53;98866.75;4992038;28;20241;-62
2022/05/29 03:58:48;;;;;;;12.67;6.83;;;;;;;19.29;93.16;98864.28;4992005;28;20187;-62
2022/05/29 04:01:15;;;;;;;10.07;7.50;;;;;;;19.43;92.98;98883.00;4991915;28;20605;-61
2022/05/29 04:03:42;;;;;;;12.00;7.30;;;;;;;19.50;93.17;98883.69;4991713;28;20190;-62
2022/05/29 04:06:09;;;;;;;12.50;7.10;;;;;;;19.54;93.69;98874.00;4991667;28;20604;-62
2022/05/29 04:14:06;;;;;;;13.13;7.20;;;;;;;19.55;94.05;98879.19;4991758;28;20181;-62
2022/05/29 04:16:33;;;;;;;8.43;6.37;;;;;;;19.53;93.57;98867.13;4991549;28;20198;-62
2022/05/29 04:19:00;;;;;;;16.07;7.50;;;;;;;19.57;92.92;98864.34;4991235;28;20206;-62
2022/05/29 04:21:27;;;;;;;15.67;8.43;;;;;;;19.56;93.41;98867.03;4991301;28;20597;-62
2022/05/29 04:23:55;;;;;;;14.70;8.40;;;;;;;19.64;93.22;98878.06;4991297;28;20209;-61
2022/05/29 04:26:22;;;;;;;14.98;8.40;;;;;;;19.70;92.96;98872.66;4990640;28;20440;-61
2022/05/29 04:28:49;;;;;;;11.70;7.20;;;;;;;19.78;92.29;98875.88;4991381;28;20202;-62
2022/05/29 04:31:15;;;;;;;13.73;7.17;;;;;;;19.84;91.48;98878.28;4991277;28;20743;-62
2022/05/29 04:33:41;;;;;;;11.50;7.23;;;;;;;19.89;91.21;98884.22;4990868;28;20198;-61
2022/05/29 04:36:08;;;;;;;13.20;8.00;;;;;;;20.04;90.67;98894.19;4991302;28;20221;-62
2022/05/29 04:38:35;;;;;;;10.87;7.00;;;;;;;20.20;90.01;98898.00;4990898;28;20194;-63
2022/05/29 04:41:08;;;;;;;9.83;6.33;;;;;;;20.36;87.89;98893.16;4991003;28;20218;-63
2022/05/29 04:43:35;;;;;;;12.37;6.70;;;;;;;20.39;85.62;98874.81;4990736;28;20197;-63
2022/05/29 04:46:03;;;;;;;14.03;6.33;;;;;;;20.43;84.94;98874.69;4991389;28;20202;-63
2022/05/29 04:48:30;;;;;;;14.15;7.20;;;;;;;20.52;84.59;98865.66;4991163;28;20450;-63
2022/05/29 04:50:59;;;;;;;10.27;6.30;;;;;;;20.64;83.84;98860.03;4991048;28;20213;-62
2022/05/29 04:53:27;;;;;;;12.13;6.67;;;;;;;20.78;83.69;98872.59;4990872;28;20202;-62
2022/05/29 04:55:54;;;;;;;10.20;6.33;;;;;;;20.81;82.17;98880.34;4991245;28;20194;-61
2022/05/29 04:58:23;;;;;;;12.97;6.40;;;;;;;20.87;81.09;98890.56;4990894;28;20190;-63
2022/05/29 05:00:50;;;;;;;9.20;6.33;;;;;;;20.92;81.79;98893.88;4990513;28;20585;-62
2022/05/29 05:03:17;;;;;;;13.00;7.28;;;;;;;21.05;82.21;98898.63;4989756;28;20444;-63
2022/05/29 05:05:47;;;;;;;11.13;6.43;;;;;;;20.90;79.92;98901.78;4989952;28;20581;-63
2022/05/29 05:08:14;;;;;;;14.23;6.97;;;;;;;20.95;80.18;98891.16;4991159;28;20195;-63
2022/05/29 05:10:41;;;;;;;14.37;6.73;;;;;;;20.68;81.28;98899.94;4990621;28;20202;-63
2022/05/29 05:13:09;;;;;;;15.23;7.03;;;;;;;20.79;82.26;98903.06;4990963;28;20206;-62
2022/05/29 05:15:37;;;;;;;10.87;6.57;;;;;;;20.83;81.27;98902.03;4991117;28;20218;-63
2022/05/29 05:18:04;;;;;;;11.33;7.17;;;;;;;20.86;81.44;98905.38;4991211;28;20349;-63
2022/05/29 05:20:33;;;;;;;10.20;7.90;;;;;;;20.84;79.55;98909.81;4990537;28;20218;-61
2022/05/29 05:23:00;;;;;;;14.13;7.88;;;;;;;20.92;79.86;98917.38;4989977;28;20455;-62
2022/05/29 05:25:27;;;;;;;9.77;7.50;;;;;;;21.01;80.16;98899.59;4990407;28;20700;-62
2022/05/29 05:27:54;;;;;;;10.77;7.10;;;;;;;21.16;79.94;98901.72;4990381;28;20623;-62
2022/05/29 05:30:21;;;;;;;14.80;7.07;;;;;;;20.98;79.37;98880.59;4990532;28;20201;-62
2022/05/29 05:32:49;;;;;;;12.63;7.40;;;;;;;20.98;80.57;98878.84;4990361;28;20203;-62
2022/05/29 05:35:16;;;;;;;17.23;7.87;;;;;;;20.79;82.45;98887.38;4990537;28;20585;-62
2022/05/29 05:37:44;;;;;;;16.27;6.90;;;;;;;20.75;81.94;98893.59;4990307;28;20194;-62
2022/05/29 05:40:14;;;;;;;11.83;7.33;;;;;;;20.76;82.06;98896.19;4990413;28;20214;-62
2022/05/29 05:42:41;;;;;;;14.65;9.20;;;;;;;20.96;82.51;98900.69;4989457;28;20467;-68
2022/05/29 05:45:11;;;;;;;16.93;11.17;;;;;;;21.08;82.24;98890.69;4994535;28;20194;-69
2022/05/29 05:47:38;;;;;;;16.20;10.13;;;;;;;21.21;80.94;98895.47;4994661;28;20198;-68
2022/05/29 05:50:10;;;;;;;14.87;10.00;;;;;;;21.26;81.33;98901.41;4994196;28;20642;-69
2022/05/29 05:52:37;;;;;;;11.93;7.27;;;;;;;21.17;80.42;98902.59;4992015;28;20205;-69
2022/05/29 05:55:05;;;;;;;12.20;7.57;;;;;;;21.21;81.31;98898.06;4993883;28;20285;-69
2022/05/29 05:57:32;;;;;;;11.97;8.20;;;;;;;21.43;82.18;98902.47;4994062;28;20190;-68
2022/05/29 06:00:00;;;;;;;12.40;7.50;;;;;;;21.52;81.82;98899.53;4993311;28;20198;-70
2022/05/29 06:02:28;;;;;;;12.32;8.15;;;;;;;21.64;81.49;98891.25;4992577;28;20455;-70
2022/05/29 06:04:55;;;;;;;12.83;7.73;;;;;;;21.94;81.04;98894.47;4993111;28;20278;-69
2022/05/29 06:07:23;;;;;;;11.10;7.10;;;;;;;21.94;79.92;98888.38;4993857;28;20198;-69
2022/05/29 06:09:50;;;;;;;13.60;7.27;;;;;;;22.07;80.26;98903.53;4993438;28;20195;-69
2022/05/29 06:12:21;;;;;;;15.20;7.30;;;;;;;22.17;80.30;98899.63;4993508;28;20240;-69
2022/05/29 06:14:48;;;;;;;13.40;6.63;;;;;;;22.21;80.11;98892.50;4992873;28;20229;-69
2022/05/29 06:17:16;;;;;;;10.48;6.95;;;;;;;22.24;80.85;98897.63;4991341;28;20456;-69
2022/05/29 06:19:42;;;;;;;9.80;6.60;;;;;;;22.16;80.88;98891.84;4991137;28;20195;-68
2022/05/29 06:22:10;;;;;;;11.20;7.03;;;;;;;22.19;81.62;98887.34;4993008;28;20244;-69
2022/05/29 06:24:38;;;;;;;13.93;6.23;;;;;;;22.27;80.87;98881.78;4993470;28;20205;-69
2022/05/29 06:27:06;;;;;;;13.77;7.63;;;;;;;22.27;80.69;98874.78;4993387;28;20248;-69
2022/05/29 06:29:34;;;;;;;14.87;6.50;;;;;;;22.31;80.21;98878.13;4993330;28;20198;-70
2022/05/29 06:32:01;;;;;;;10.20;6.40;;;;;;;22.40;78.83;98872.50;4993209;28;20201;-70
2022/05/29 06:34:28;;;;;;;11.07;6.77;;;;;;;22.44;78.74;98881.09;4993192;28;20672;-70
2022/05/29 06:36:55;;;;;;;11.53;6.90;;;;;;;22.60;78.16;98875.16;4993692;28;20198;-70
2022/05/29 06:39:22;;;;;;;11.07;6.87;;;;;;;22.77;78.92;98877.94;4992644;28;20201;-69
2022/05/29 06:41:51;;;;;;;18.20;9.70;;;;;;;22.88;77.96;98869.63;4972922;28;20463;-69
2022/05/29 06:44:18;;;;;;;11.17;6.67;;;;;;;23.13;77.30;98877.28;4993236;28;20261;-69
2022/05/29 06:46:45;;;;;;;10.83;7.07;;;;;;;23.27;76.91;98874.84;4993305;28;20198;-69
2022/05/29 06:49:12;;;;;;;13.83;6.87;;;;;;;23.31;76.91;98890.41;4993580;28;20198;-69
2022/05/29 06:51:39;;;;;;;11.93;6.83;;;;;;;23.15;76.62;98893.75;4993369;28;20217;-63
2022/05/29 06:54:06;;;;;;;14.03;7.10;;;;;;;23.29;77.18;98891.38;4992306;28;20444;-62
2022/05/29 06:56:33;;;;;;;14.27;6.50;;;;;;;23.36;75.03;98898.03;4990365;28;20190;-64
2022/05/29 06:59:03;;;;;;;10.63;6.30;;;;;;;23.34;75.18;98885.03;4992158;28;20195;-63
2022/05/29 07:07:03;;;;;;;14.83;7.63;;;;;;;23.53;74.42;98895.56;4992583;28;20719;-62
2022/05/29 07:09:33;;;;;;;11.13;6.17;;;;;;;23.48;73.60;98887.06;4992224;28;20194;-62
2022/05/29 07:12:06;;;;;;;12.33;6.73;;;;;;;23.43;73.78;98889.84;4992386;28;20285;-62
2022/05/29 07:14:37;;;;;;;15.77;6.37;;;;;;;23.37;74.05;98894.50;4992054;28;20194;-63
2022/05/29 07:17:05;;;;;;;11.27;6.90;;;;;;;23.38;73.91;98870.00;4992437;28;20305;-62
2022/05/29 07:19:32;;;;;;;17.27;9.20;;;;;;;23.60;73.96;98881.22;4992171;28;20257;-63
2022/05/29 07:21:59;;;;;;;10.20;7.10;;;;;;;23.27;75.48;98880.94;4989001;28;20250;-63
2022/05/29 07:24:27;;;;;;;17.27;8.38;;;;;;;23.35;75.27;98885.84;4990078;28;20958;-63
2022/05/29 07:26:54;;;;;;;11.80;7.47;;;;;;;23.47;74.23;98882.72;4992016;28;20370;-61
2022/05/29 07:29:21;;;;;;;10.10;6.87;;;;;;;23.55;74.05;98875.34;4991917;28;20198;-62
2022/05/29 07:31:52;;;;;;;15.80;7.53;;;;;;;23.43;75.70;98875.91;4991339;28;20665;-62
2022/05/29 07:34:18;;;;;;;13.17;7.43;;;;;;;23.56;75.45;98874.44;4989277;28;20649;-63
2022/05/29 07:36:45;;;;;;;15.30;7.30;;;;;;;23.72;73.82;98869.31;4989592;28;20190;-63
2022/05/29 07:39:13;;;;;;;13.60;7.50;;;;;;;23.87;74.18;98869.44;4990915;28;20451;-62
2022/05/29 07:44:24;;;;;;;14.30;6.80;;;;;;;24.06;70.85;98853.69;4991928;28;20555;-63
2022/05/29 07:46:52;;;;;;;12.70;7.07;;;;;;;23.90;69.65;98850.91;4989937;28;20213;-63
2022/05/29 07:49:19;;;;;;;11.97;6.73;;;;;;;23.86;69.42;98852.00;4991282;28;20202;-62
2022/05/29 07:51:46;;;;;;;11.87;7.57;;;;;;;23.66;70.88;98852.09;4991884;28;20562;-64
2022/05/29 07:54:13;;;;;;;12.10;7.47;;;;;;;23.92;71.43;98856.13;4991418;28;20221;-63
2022/05/29 07:56:39;;;;;;;11.03;7.30;;;;;;;23.82;70.91;98829.44;4991158;28;20194;-63
2022/05/29 07:59:06;;;;;;;15.63;8.23;;;;;;;24.21;70.26;98847.69;4991235;28;20289;-63
2022/05/29 08:01:33;;;;;;;16.48;7.55;;;;;;;24.06;69.16;98843.19;4990416;28;20509;-63
2022/05/29 08:04:01;;;;;;;12.93;6.43;;;;;;;23.86;68.67;98852.00;4990625;28;20182;-63
2022/05/29 08:06:28;;;;;;;13.93;6.77;;;;;;;23.73;69.04;98845.66;4990268;28;20198;-63
2022/05/29 08:08:55;;;;;;;11.90;6.77;;;;;;;23.77;69.61;98844.56;4990793;28;20292;-64
2022/05/29 08:11:22;;;;;;;11.97;6.53;;;;;;;23.95;69.97;98833.16;4990914;28;20190;-63
2022/05/29 08:13:49;;;;;;;16.40;6.83;;;;;;;24.03;68.63;98827.56;4988901;28;20302;-64
2022/05/29 08:16:17;;;;;;;11.23;6.53;;;;;;;23.89;68.53;98816.91;4989041;28;20723;-62
2022/05/29 08:18:44;;;;;;;13.67;6.80;;;;;;;23.99;68.28;98836.50;4990214;28;20191;-63
2022/05/29 08:21:12;;;;;;;12.63;7.30;;;;;;;23.93;69.44;98824.53;4989963;28;20262;-62
2022/05/29 08:23:41;;;;;;;13.13;7.33;;;;;;;23.85;71.25;98818.81;4990377;28;20194;-61
2022/05/29 08:31:36;;;;;;;13.43;7.00;;;;;;;24.08;69.03;98813.31;4991436;28;20197;-63
2022/05/29 08:34:04;;;;;;;9.40;6.20;;;;;;;24.17;68.72;98819.91;4990863;28;20570;-63
2022/05/29 08:36:32;;;;;;;11.47;7.07;;;;;;;24.17;68.60;98821.69;4990814;28;20556;-64
2022/05/29 08:38:59;;;;;;;16.50;8.00;;;;;;;24.32;69.51;98816.50;4990470;28;20212;-64
2022/05/29 08:41:34;;;;;;;17.53;7.53;;;;;;;24.60;70.49;98815.97;4990546;28;20226;-64
2022/05/29 08:44:08;;;;;;;13.53;7.33;;;;;;;24.64;69.66;98812.22;4990497;28;20668;-62
2022/05/29 08:46:41;;;;;;;15.43;7.43;;;;;;;24.76;68.67;98811.59;4990243;28;20571;-62
2022/05/29 08:49:12;;;;;;;15.17;6.87;;;;;;;25.05;67.50;98813.56;4990432;28;20210;-62
2022/05/29 08:52:01;;;;;;;16.13;9.07;;;;;;;25.27;67.03;98808.03;4990280;28;20194;-63
2022/05/29 08:54:41;;;;;;;11.33;6.93;;;;;;;25.58;65.18;98799.31;4990480;28;20201;-64
2022/05/29 08:57:16;;;;;;;10.30;7.20;;;;;;;25.69;65.14;98800.44;4990075;28;20197;-62
2022/05/29 08:59:49;;;;;;;11.00;6.17;;;;;;;25.64;64.26;98791.09;4989736;28;20226;-63
2022/05/29 09:02:24;;;;;;;14.48;6.47;;;;;;;25.65;65.67;98792.81;4989613;28;20221;-63
2022/05/29 09:04:58;;;;;;;16.43;5.93;;;;;;;25.94;63.46;98793.75;4990200;28;20194;-63
2022/05/29 09:07:31;;;;;;;12.37;5.37;;;;;;;26.04;62.69;98787.88;4990068;28;20205;-63
2022/05/29 09:10:03;;;;;;;11.52;5.68;;;;;;;26.14;62.28;98789.09;4989639;28;20262;-63
2022/05/29 09:12:36;;;;;;;10.40;5.80;;;;;;;26.32;62.57;98777.47;4989556;28;20193;-63
2022/05/29 09:15:08;;;;;;;9.33;4.90;;;;;;;26.27;62.26;98769.00;4990043;28;20186;-63
2022/05/29 09:17:40;;;;;;;11.57;6.22;;;;;;;26.23;62.37;98775.38;4989489;28;20452;-63
2022/05/29 09:20:14;;;;;;;11.48;5.63;;;;;;;26.37;61.43;98759.59;4993710;28;20209;-62
2022/05/29 09:22:44;;;;;;;10.10;4.97;;;;;;;26.50;60.67;98753.59;4993583;28;20221;-63
2022/05/29 09:25:17;;;;;;;7.77;5.30;;;;;;;26.83;60.43;98741.91;4994118;28;20637;-63
2022/05/29 09:27:47;;;;;;;8.18;5.30;;;;;;;27.16;59.03;98746.88;4993788;28;20190;-64
2022/05/29 09:30:15;;;;;;;14.65;5.57;;;;;;;27.07;58.82;98749.22;4993621;28;20269;-62
2022/05/29 09:32:49;;;;;;;18.03;6.00;;;;;;;27.01;58.96;98746.94;4993210;28;20444;-63
2022/05/29 09:35:25;;;;;;;11.18;5.45;;;;;;;26.85;58.86;98749.69;4993674;28;20221;-63
2022/05/29 09:38:00;;;;;;;11.80;5.13;;;;;;;26.69;58.55;98746.28;4993327;28;20201;-63
2022/05/29 09:40:33;;;;;;;10.40;5.72;;;;;;;26.70;59.66;98743.53;4993995;28;20208;-62
2022/05/29 09:43:13;;;;;;;8.95;5.53;;;;;;;26.83;59.52;98746.31;4993462;28;20222;-64
2022/05/29 09:45:40;;;;;;;12.48;5.68;;;;;;;26.72;59.95;98743.47;4993463;28;20562;-63
2022/05/29 09:51:16;;;;;;;13.43;6.80;;;;;;;26.58;60.60;98719.75;4993505;28;20581;-63
2022/05/29 09:53:49;;;;;;;10.17;6.20;;;;;;;26.76;60.73;98723.88;4993363;28;20195;-63
2022/05/29 09:56:26;;;;;;;11.70;6.37;;;;;;;27.02;60.14;98723.16;4993195;28;20209;-63
2022/05/29 09:58:56;;;;;;;10.13;6.22;;;;;;;27.12;58.59;98705.78;4993004;28;20622;-63
2022/05/29 10:01:32;;;;;;;16.83;6.22;;;;;;;27.29;58.95;98696.78;4993111;28;20216;-63
2022/05/29 10:04:02;;;;;;;12.30;6.20;;;;;;;27.76;57.98;98694.56;4993302;28;20197;-63
2022/05/29 10:06:32;;;;;;;13.77;6.85;;;;;;;28.01;57.79;98696.44;4992885;28;20747;-62
2022/05/29 10:09:12;;;;;;;10.40;6.30;;;;;;;28.20;57.03;98675.78;4992883;28;20205;-63
2022/05/29 10:11:40;;;;;;;13.63;7.33;;;;;;;28.11;56.37;98679.03;4991808;28;20815;-63
2022/05/29 10:14:26;;;;;;;22.48;6.43;;;;;;;28.12;55.47;98661.38;4992585;28;20445;-64
2022/05/29 10:16:55;;;;;;;14.57;6.35;;;;;;;28.30;55.30;98675.97;4992446;28;20230;-64
2022/05/29 10:19:39;;;;;;;13.90;6.25;;;;;;;28.51;54.87;98664.75;4992900;28;20205;-62
2022/05/29 10:22:14;;;;;;;12.48;6.13;;;;;;;28.38;54.62;98669.22;4992202;28;20245;-63
2022/05/29 10:24:42;;;;;;;13.18;6.63;;;;;;;28.46;54.57;98669.50;4992675;28;20280;-63
2022/05/29 10:27:15;;;;;;;10.38;5.95;;;;;;;28.39;53.88;98660.34;4992415;28;20285;-62
2022/05/29 10:29:43;;;;;;;13.55;6.10;;;;;;;28.31;54.44;98656.53;4991585;28;20197;-63
2022/05/29 10:32:21;;;;;;;11.98;5.78;;;;;;;28.22;55.09;98650.09;4992468;28;20202;-63
2022/05/29 10:34:49;;;;;;;12.07;7.53;;;;;;;28.33;56.00;98636.97;4991568;28;20448;-62
2022/05/29 10:37:29;;;;;;;16.27;7.05;;;;;;;28.61;55.03;98631.44;4992292;28;20754;-62
2022/05/29 10:40:22;;;;;;;11.75;6.80;;;;;;;28.38;54.74;98629.56;4992082;28;20688;-63
2022/05/29 10:42:51;;;;;;;13.57;8.30;;;;;;;28.44;56.26;98626.50;4988151;28;20701;-63
2022/05/29 10:45:22;;;;;;;15.13;8.30;;;;;;;28.46;56.49;98603.44;4992500;28;20194;-63
2022/05/29 10:48:21;;;;;;;13.30;6.43;;;;;;;28.17;55.61;98615.22;4992301;28;20194;-63
2022/05/29 10:51:06;;;;;;;11.98;7.22;;;;;;;27.96;55.56;98571.78;4991393;28;20443;-63
2022/05/29 10:53:47;;;;;;;16.17;7.00;;;;;;;27.99;55.23;98571.56;4992366;28;20201;-63
2022/05/29 10:56:25;;;;;;;13.45;7.97;;;;;;;28.12;54.83;98592.72;4992435;28;20194;-62
2022/05/29 10:59:25;;;;;;;13.15;7.13;;;;;;;27.92;56.02;98581.69;4991960;28;20216;-62
2022/05/29 11:05:21;;;;;;;11.93;6.78;;;;;;;27.89;55.58;98567.84;4992386;28;20190;-62
2022/05/29 11:07:58;;;;;;;15.65;6.53;;;;;;;28.21;55.24;98571.75;4983260;28;20189;-64
2022/05/29 11:10:48;;;;;;;19.67;7.28;;;;;;;28.47;53.95;98557.56;4991734;28;20201;-63
2022/05/29 11:13:29;;;;;;;12.40;7.22;;;;;;;28.65;53.31;98563.38;4991211;28;20440;-64
2022/05/29 11:16:07;;;;;;;16.90;7.70;;;;;;;28.34;54.08;98554.13;4992140;28;20197;-63
2022/05/29 11:18:56;;;;;;;9.32;7.15;;;;;;;28.62;53.59;98551.19;4992571;28;20202;-62
2022/05/29 11:21:32;;;;;;;12.43;6.90;;;;;;;28.84;53.57;98554.94;4992073;28;20684;-62
2022/05/29 11:24:24;;;;;;;13.30;7.05;;;;;;;28.90;52.16;98533.34;4991896;28;20193;-62
2022/05/29 11:27:00;;;;;;;11.90;6.80;;;;;;;29.19;51.64;98539.97;4991841;28;20217;-64
2022/05/29 11:29:47;;;;;;;14.30;7.03;;;;;;;29.22;51.67;98534.47;4991657;28;20565;-62
2022/05/29 11:32:23;;;;;;;11.55;6.78;;;;;;;29.26;51.67;98520.03;4991707;28;20205;-64
2022/05/29 11:35:06;;;;;;;12.23;7.03;;;;;;;29.43;52.02;98519.63;4991421;28;20744;-62
2022/05/29 11:37:51;;;;;;;16.25;7.50;;;;;;;29.32;52.01;98516.94;4991619;28;20194;-64
2022/05/29 11:40:21;;;;;;;16.85;7.55;;;;;;;29.25;52.27;98511.25;4991434;28;20209;-63
2022/05/29 11:42:56;;;;;;;18.17;7.55;;;;;;;29.30;52.83;98505.63;4991461;28;20226;-64
2022/05/29 11:51:07;;;;;;;12.75;6.72;;;;;;;29.17;52.66;98503.00;4991165;28;20209;-63
2022/05/29 11:51:21;;;;;;;12.35;6.55;;;;;;;29.64;52.45;98498.59;4991033;28;20206;-64
2022/05/29 11:53:54;;;;;;;14.63;7.63;;;;;;;29.70;51.02;98477.78;4990649;28;20201;-62
2022/05/29 11:56:27;;;;;;;12.07;7.05;;;;;;;29.60;51.29;98465.38;4990842;28;20190;-64
2022/05/29 11:59:02;;;;;;;15.60;7.40;;;;;;;29.62;51.92;98472.22;4990627;28;20681;-64
2022/05/29 12:01:37;;;;;;;12.35;6.82;;;;;;;29.64;51.93;98465.00;4990531;28;20185;-64
2022/05/29 12:04:13;;;;;;;13.50;6.55;;;;;;;29.75;52.85;98467.66;4991096;28;20225;-63
2022/05/29 12:06:46;;;;;;;13.85;7.40;;;;;;;29.78;51.82;98472.72;4989711;28;20436;-64
2022/05/29 12:09:18;;;;;;;20.08;7.60;;;;;;;29.96;51.90;98466.97;4990568;28;20205;-64
2022/05/29 12:11:50;;;;;;;19.45;7.50;;;;;;;30.08;51.51;98460.72;4990245;28;20205;-63
2022/05/29 12:14:22;;;;;;;9.85;6.85;;;;;;;30.25;50.55;98439.00;4990920;28;20198;-63
2022/05/29 12:16:57;;;;;;;23.10;7.57;;;;;;;30.33;50.75;98420.66;4990533;28;20276;-63